createdAt,value
2022-12-10T08:20:41.517Z,64.20
2022-12-10T08:23:12.265Z,64.48
2022-12-10T08:25:42.764Z,64.28
2022-12-10T08:28:13.008Z,64.21
2022-12-10T08:30:43.007Z,64.12
2022-12-10T08:33:13.504Z,64.07
2022-12-10T08:35:44.390Z,64.03
2022-12-10T08:38:14.712Z,63.98
2022-12-10T08:40:45.742Z,63.95
2022-12-10T08:43:16.223Z,63.88
2022-12-10T08:45:46.580Z,63.90
2022-12-10T08:48:17.083Z,63.92
2022-12-10T08:50:48.072Z,63.89
2022-12-10T08:53:18.618Z,63.83
2022-12-10T08:55:51.970Z,63.82
2022-12-10T08:58:23.614Z,63.82
2022-12-10T09:00:54.188Z,63.82
2022-12-10T09:03:25.160Z,64.40
2022-12-10T09:05:55.875Z,64.48
2022-12-10T09:08:26.259Z,64.16
2022-12-10T09:10:58.062Z,64.00
2022-12-10T09:13:28.654Z,63.96
2022-12-10T09:15:58.978Z,63.92
2022-12-10T09:18:29.416Z,64.05
2022-12-10T09:21:00.065Z,65.05
2022-12-10T09:23:30.404Z,64.88
2022-12-10T09:26:00.618Z,64.41
2022-12-10T09:28:30.804Z,64.21
2022-12-10T09:31:01.585Z,64.30
2022-12-10T09:33:31.820Z,64.23
2022-12-10T09:36:02.165Z,64.14
2022-12-10T09:38:32.744Z,64.13
2022-12-10T09:41:26.845Z,64.30
2022-12-10T09:44:11.728Z,64.27
2022-12-10T09:47:05.368Z,64.26
2022-12-10T09:50:05.622Z,64.26
2022-12-10T09:52:45.074Z,64.26
2022-12-10T09:55:18.313Z,64.20
2022-12-10T09:57:54.981Z,64.30
2022-12-10T10:00:47.524Z,64.22
2022-12-10T10:03:19.235Z,64.24
2022-12-10T10:05:54.886Z,64.28
2022-12-10T10:08:41.245Z,64.32
2022-12-10T10:11:20.355Z,64.31
2022-12-10T10:13:58.126Z,64.34
2022-12-10T10:16:34.978Z,64.34
2022-12-10T10:19:17.367Z,64.36
2022-12-10T10:21:52.940Z,64.29
2022-12-10T10:24:37.734Z,64.36
2022-12-10T10:27:32.144Z,64.40
2022-12-10T10:30:06.790Z,64.54
2022-12-10T10:32:40.461Z,64.62
2022-12-10T10:35:24.412Z,64.65
2022-12-10T10:38:00.763Z,64.69
2022-12-10T10:40:47.200Z,64.62
2022-12-10T10:43:51.351Z,64.67
2022-12-10T10:46:28.448Z,64.67
2022-12-10T10:49:19.263Z,64.70
2022-12-10T10:51:50.091Z,64.73
2022-12-10T10:54:48.688Z,64.69
2022-12-10T10:57:28.453Z,64.73
2022-12-10T11:00:09.481Z,64.80
2022-12-10T11:02:44.771Z,64.82
2022-12-10T11:05:36.148Z,64.76
2022-12-10T11:08:15.247Z,64.77
2022-12-10T11:11:03.212Z,64.77
2022-12-10T11:13:37.760Z,64.73
2022-12-10T11:16:27.814Z,64.64
2022-12-10T11:19:03.655Z,64.80
2022-12-10T11:21:36.673Z,64.97
2022-12-10T11:24:14.531Z,65.00
2022-12-10T11:27:03.156Z,65.12
2022-12-10T11:29:42.377Z,65.16
2022-12-10T11:32:38.422Z,65.12
2022-12-10T11:35:16.695Z,65.21
2022-12-10T11:38:11.203Z,65.15
2022-12-10T11:41:01.293Z,65.21
2022-12-10T11:43:53.947Z,65.26
2022-12-10T11:46:33.554Z,65.10
2022-12-10T11:49:25.998Z,65.17
2022-12-10T11:52:05.667Z,65.24
2022-12-10T11:55:02.656Z,65.25
2022-12-10T11:57:48.021Z,65.18
2022-12-10T12:00:34.287Z,65.21
2022-12-10T12:03:50.756Z,65.24
2022-12-10T12:06:40.145Z,65.36
2022-12-10T12:09:10.394Z,65.37
2022-12-10T12:11:59.882Z,65.45
2022-12-10T12:14:48.251Z,65.45
2022-12-10T12:17:35.372Z,65.47
2022-12-10T12:20:18.892Z,65.86
2022-12-10T12:23:05.297Z,65.67
2022-12-10T12:25:41.558Z,65.48
2022-12-10T12:28:25.779Z,65.52
2022-12-10T12:31:08.562Z,65.50
2022-12-10T12:34:17.627Z,65.50
2022-12-10T12:36:48.629Z,65.52
2022-12-10T12:39:25.626Z,65.48
2022-12-10T12:42:10.735Z,65.43
2022-12-10T12:44:59.100Z,65.47
2022-12-10T12:48:01.384Z,65.51
2022-12-10T12:50:40.665Z,65.45
2022-12-10T12:53:26.212Z,65.64
2022-12-10T12:56:12.604Z,65.62
2022-12-10T12:58:51.863Z,65.50
2022-12-10T13:01:31.204Z,65.47
2022-12-10T13:04:03.981Z,65.52
2022-12-10T13:06:45.822Z,65.56
2022-12-10T13:09:16.502Z,65.55
2022-12-10T13:12:08.679Z,65.64
2022-12-10T13:15:03.291Z,65.56
2022-12-10T13:17:41.089Z,65.45
2022-12-10T13:20:29.880Z,65.50
2022-12-10T13:23:27.576Z,65.69
2022-12-10T13:26:00.646Z,65.69
2022-12-10T13:28:40.845Z,65.53
2022-12-10T13:31:17.472Z,65.54
2022-12-10T13:34:07.216Z,65.65
2022-12-10T13:36:44.012Z,65.65
2022-12-10T13:39:34.487Z,65.72
2022-12-10T13:42:25.076Z,65.68
2022-12-10T13:45:26.826Z,65.62
2022-12-10T13:48:25.665Z,65.69
2022-12-10T13:51:13.295Z,65.58
2022-12-10T13:54:07.668Z,65.60
2022-12-10T13:57:12.056Z,65.45
2022-12-10T14:00:07.879Z,65.60
2022-12-10T14:02:56.847Z,65.58
2022-12-10T14:05:41.457Z,65.45
2022-12-10T14:08:20.209Z,65.44
2022-12-10T14:10:51.104Z,65.33
2022-12-10T14:13:24.965Z,65.38
2022-12-10T14:15:58.497Z,65.39
2022-12-10T14:18:31.744Z,65.39
2022-12-10T14:21:08.277Z,65.42
2022-12-10T14:23:45.645Z,65.32
2022-12-10T14:26:17.627Z,65.42
2022-12-10T14:28:53.273Z,65.41
2022-12-10T14:31:30.839Z,65.46
2022-12-10T14:34:08.151Z,65.44
2022-12-10T14:36:47.475Z,65.45
2022-12-10T14:39:21.300Z,65.46
2022-12-10T14:41:55.225Z,65.53
2022-12-10T14:44:25.738Z,65.57
2022-12-10T14:47:11.258Z,65.73
2022-12-10T14:49:45.125Z,65.56
2022-12-10T14:52:18.783Z,65.56
2022-12-10T14:54:50.780Z,65.58
2022-12-10T14:57:33.050Z,65.44
2022-12-10T15:00:10.672Z,65.43
2022-12-10T15:02:45.785Z,65.36
2022-12-10T15:05:24.874Z,65.37
2022-12-10T15:08:01.805Z,65.48
2022-12-10T15:10:44.345Z,65.35
2022-12-10T15:13:43.717Z,65.24
2022-12-10T15:16:30.718Z,65.23
2022-12-10T15:19:32.991Z,65.34
2022-12-10T15:22:19.362Z,65.37
2022-12-10T15:24:57.054Z,65.35
2022-12-10T15:27:30.140Z,65.37
2022-12-10T15:30:02.042Z,65.18
2022-12-10T15:32:34.172Z,65.39
2022-12-10T15:35:16.739Z,65.91
2022-12-10T15:37:58.301Z,65.59
2022-12-10T15:40:34.599Z,65.53
2022-12-10T15:43:29.462Z,65.55
2022-12-10T15:46:03.880Z,65.57
2022-12-10T15:48:40.266Z,65.50
2022-12-10T15:51:13.633Z,65.42
2022-12-10T15:53:45.297Z,65.56
2022-12-10T15:56:23.963Z,65.41
2022-12-10T15:58:56.669Z,65.47
2022-12-10T16:01:28.247Z,65.49
2022-12-10T16:03:59.860Z,65.44
2022-12-10T16:06:33.108Z,65.47
2022-12-10T16:09:04.012Z,65.41
2022-12-10T16:11:36.380Z,65.49
2022-12-10T16:14:10.017Z,65.48
2022-12-10T16:16:44.277Z,65.58
2022-12-10T16:19:18.901Z,65.46
2022-12-10T16:21:51.212Z,65.44
2022-12-10T16:24:23.672Z,65.43
2022-12-10T16:27:00.032Z,65.44
2022-12-10T16:29:31.915Z,65.49
2022-12-10T16:32:05.770Z,65.48
2022-12-10T16:34:38.463Z,65.51
2022-12-10T16:37:10.927Z,65.62
2022-12-10T16:39:50.713Z,65.68
2022-12-10T16:42:25.083Z,65.87
2022-12-10T16:45:02.552Z,65.82
2022-12-10T16:47:41.184Z,65.78
2022-12-10T16:50:15.955Z,65.72
2022-12-10T16:52:50.264Z,65.61
2022-12-10T16:55:25.836Z,65.66
2022-12-10T16:57:57.378Z,65.62
2022-12-10T17:00:29.602Z,65.64
2022-12-10T17:03:08.112Z,65.61
2022-12-10T17:05:45.025Z,65.81
2022-12-10T17:08:16.523Z,65.85
2022-12-10T17:11:05.527Z,65.68
2022-12-10T17:13:38.405Z,65.64
2022-12-10T17:16:09.434Z,65.84
2022-12-10T17:18:40.526Z,65.78
2022-12-10T17:21:11.797Z,65.62
2022-12-10T17:23:42.592Z,65.59
2022-12-10T17:26:29.752Z,65.67
2022-12-10T17:29:06.458Z,65.82
2022-12-10T17:31:41.180Z,65.79
2022-12-10T17:34:15.021Z,65.87
2022-12-10T17:36:46.712Z,65.87
2022-12-10T17:39:24.249Z,65.74
2022-12-10T17:41:55.327Z,65.80
2022-12-10T17:44:28.012Z,65.71
2022-12-10T17:47:00.306Z,65.76
2022-12-10T17:49:32.807Z,65.70
2022-12-10T17:52:04.215Z,65.72
2022-12-10T17:54:36.941Z,65.80
2022-12-10T17:57:24.248Z,65.61
2022-12-10T17:59:55.390Z,65.74
2022-12-10T18:02:28.285Z,65.52
2022-12-10T18:05:00.786Z,65.79
2022-12-10T18:07:34.275Z,65.72
2022-12-10T18:10:09.582Z,65.74
2022-12-10T18:12:43.404Z,65.74
2022-12-10T18:15:15.620Z,65.65
2022-12-10T18:17:47.784Z,65.69
2022-12-10T18:20:29.464Z,65.80
2022-12-10T18:23:02.422Z,65.91
2022-12-10T18:25:33.829Z,65.93
2022-12-10T18:28:23.741Z,65.99
2022-12-10T18:31:00.758Z,65.97
2022-12-10T18:33:49.600Z,65.88
2022-12-10T18:36:27.303Z,65.91
2022-12-10T18:39:00.025Z,65.97
2022-12-10T18:41:30.889Z,65.93
2022-12-10T18:44:05.333Z,65.92
2022-12-10T18:46:40.483Z,65.89
2022-12-10T18:49:15.476Z,65.85
2022-12-10T18:51:46.317Z,65.87
2022-12-10T18:54:17.376Z,65.77
2022-12-10T18:57:31.330Z,65.75
2022-12-10T18:59:45.372Z,65.78
2022-12-10T19:02:21.024Z,65.77
2022-12-10T19:04:53.214Z,65.78
2022-12-10T19:07:25.765Z,65.77
2022-12-10T19:09:57.995Z,65.83
2022-12-10T19:12:30.585Z,65.71
2022-12-10T19:15:06.237Z,65.72
2022-12-10T19:17:47.324Z,65.66
2022-12-10T19:20:27.483Z,65.72
2022-12-10T19:23:01.442Z,65.85
2022-12-10T19:25:38.175Z,65.90
2022-12-10T19:28:19.181Z,65.94
2022-12-10T19:30:52.816Z,65.95
2022-12-10T19:33:24.847Z,65.86
2022-12-10T19:35:58.651Z,65.85
2022-12-10T19:38:31.180Z,65.78
2022-12-10T19:41:03.882Z,65.77
2022-12-10T19:43:39.953Z,65.86
2022-12-10T19:46:20.042Z,65.78
2022-12-10T19:48:56.434Z,65.87
2022-12-10T19:51:32.667Z,66.04
2022-12-10T19:54:10.505Z,67.17
2022-12-10T19:56:46.172Z,66.76
2022-12-10T19:59:21.307Z,66.12
2022-12-10T20:01:53.439Z,65.88
2022-12-10T20:04:27.743Z,65.84
2022-12-10T20:07:00.197Z,66.08
2022-12-10T20:09:38.103Z,65.98
2022-12-10T20:12:12.111Z,65.95
2022-12-10T20:14:48.938Z,65.88
2022-12-10T20:17:25.762Z,65.88
2022-12-10T20:19:58.245Z,65.92
2022-12-10T20:22:32.177Z,65.86
2022-12-10T20:25:08.641Z,65.83
2022-12-10T20:27:43.513Z,65.90
2022-12-10T20:30:23.962Z,65.84
2022-12-10T20:32:57.613Z,65.75
2022-12-10T20:35:42.948Z,65.77
2022-12-10T20:38:16.856Z,65.71
2022-12-10T20:40:49.766Z,65.75
2022-12-10T20:43:26.162Z,65.87
2022-12-10T20:46:05.280Z,65.87
2022-12-10T20:48:42.050Z,65.70
2022-12-10T20:51:17.217Z,65.83
2022-12-10T20:53:52.305Z,65.80
2022-12-10T20:56:28.615Z,65.81
2022-12-10T20:59:00.247Z,65.86
2022-12-10T21:01:34.113Z,66.05
2022-12-10T21:04:07.764Z,66.04
2022-12-10T21:06:39.141Z,65.94
2022-12-10T21:09:11.899Z,66.05
2022-12-10T21:11:46.236Z,65.97
2022-12-10T21:14:52.290Z,65.99
2022-12-10T21:17:10.089Z,65.82
2022-12-10T21:19:44.118Z,65.83
2022-12-10T21:22:17.381Z,65.75
2022-12-10T21:24:52.361Z,65.83
2022-12-10T21:27:26.274Z,65.85
2022-12-10T21:29:57.773Z,65.81
2022-12-10T21:32:34.505Z,65.76
2022-12-10T21:35:07.369Z,65.98
2022-12-10T21:37:40.097Z,65.91
2022-12-10T21:40:13.576Z,65.98
2022-12-10T21:43:03.266Z,65.94
2022-12-10T21:45:35.080Z,65.84
2022-12-10T21:48:07.795Z,65.91
2022-12-10T21:50:40.492Z,65.88
2022-12-10T21:53:14.727Z,65.93
2022-12-10T21:55:49.584Z,66.09
2022-12-10T21:58:21.527Z,66.17
2022-12-10T22:00:59.507Z,66.09
2022-12-10T22:03:30.530Z,66.04
2022-12-10T22:06:05.211Z,66.06
2022-12-10T22:08:36.397Z,66.16
2022-12-10T22:11:10.174Z,66.11
2022-12-10T22:13:40.970Z,66.10
2022-12-10T22:16:12.807Z,66.22
2022-12-10T22:18:43.487Z,66.06
2022-12-10T22:21:14.638Z,65.98
2022-12-10T22:23:45.339Z,66.12
2022-12-10T22:26:15.605Z,65.96
2022-12-10T22:28:46.305Z,66.00
2022-12-10T22:31:16.779Z,66.08
2022-12-10T22:33:47.512Z,66.03
2022-12-10T22:36:18.905Z,66.11
2022-12-10T22:38:51.420Z,65.93
2022-12-10T22:41:21.849Z,65.96
2022-12-10T22:43:52.909Z,65.96
2022-12-10T22:46:23.387Z,66.11
2022-12-10T22:48:54.364Z,66.12
2022-12-10T22:51:24.608Z,66.15
2022-12-10T22:53:56.245Z,66.11
2022-12-10T22:56:26.601Z,66.17
2022-12-10T22:58:58.616Z,66.26
2022-12-10T23:01:30.322Z,66.20
2022-12-10T23:04:00.825Z,66.21
2022-12-10T23:06:31.606Z,66.18
2022-12-10T23:09:02.133Z,66.18
2022-12-10T23:11:32.573Z,66.17
2022-12-10T23:14:02.920Z,66.12
2022-12-10T23:16:33.855Z,66.05
2022-12-10T23:19:04.914Z,66.05
2022-12-10T23:21:37.937Z,66.10
2022-12-10T23:24:08.735Z,66.06
2022-12-10T23:26:43.980Z,66.08
2022-12-10T23:29:17.369Z,66.03
2022-12-10T23:31:48.314Z,65.98
2022-12-10T23:34:21.734Z,65.97
2022-12-10T23:36:59.006Z,66.02
2022-12-10T23:39:29.532Z,65.97
2022-12-10T23:41:59.827Z,66.17
2022-12-10T23:44:30.415Z,66.23
2022-12-10T23:47:00.805Z,66.32
2022-12-10T23:49:32.470Z,66.32
2022-12-10T23:52:09.316Z,66.24
2022-12-10T23:54:40.344Z,66.41
2022-12-10T23:57:10.916Z,66.47
2022-12-10T23:59:41.679Z,66.36
